Bitflower — SBJE — position and weather

sailwx.info

Track history (hours):
 
Tides and Currents Weather Stations Pressure Air Temp Water Temp Dewpoint Dewpoint Depression Visibility Wind Speed Wind Dir Waves Ship Positions

Bitflower

Last reported at 2014-Sep-22 13:22 UTC. Time now 2014-Sep-22 14:18 UTC.
Position N 51°53' E 004°21'.

Length 116 m; draft 6.5 m.

Type: Ship. MMSI: 266009000.

Date/timePositionNaut miles runAvg speedWind from/ knotsBaromVisibWave heightAir tempDewpointWater temp
2014-Sep-22 13:22N 51°53' E 004°21'0 0.0
2014-Sep-22 12:31N 51°53' E 004°21'0 0.0
2014-Sep-22 11:25N 51°53' E 004°21'0 0.0
2014-Sep-22 10:31N 51°53' E 004°21'0 0.0
2014-Sep-22 09:31N 51°53' E 004°21'0 0.0
2014-Sep-22 08:31N 51°53' E 004°21'0 0.0
2014-Sep-22 07:31N 51°53' E 004°21'0 0.0
2014-Sep-22 06:25N 51°53' E 004°21'0 0.0
2014-Sep-22 05:31N 51°53' E 004°21'0 0.0
2014-Sep-22 04:25N 51°53' E 004°21'0 0.0
2014-Sep-22 03:31N 51°53' E 004°21'0 0.0
2014-Sep-22 02:31N 51°53' E 004°21'0 0.1
2014-Sep-22 01:33N 51°53' E 004°21'1211.7
2014-Sep-22 00:33N 51°59' E 004°04'1212.3
2014-Sep-21 23:33N 52°05' E 003°46'4 3.8
2014-Sep-21 22:31N 52°08' E 003°44'0 0.0
2014-Sep-21 21:31N 52°08' E 003°44'0 0.0
2014-Sep-21 17:29N 52°08' E 003°44'0 0.0
2014-Sep-21 04:28N 52°08' E 003°44'0 0.0
2014-Sep-20 21:13N 52°09' E 003°44'0 0.0
2014-Sep-20 20:31N 52°09' E 003°44'0 0.0
2014-Sep-20 19:07N 52°09' E 003°44'1 1.2
2014-Sep-20 18:33N 52°08' E 003°44'1413.5
2014-Sep-20 17:32N 52°22' E 003°49'2114.8
2014-Sep-20 16:06N 52°42' E 003°55'814.1
2014-Sep-20 15:32N 52°50' E 003°58'1312.8
2014-Sep-20 14:30N 53°02' E 004°08'1313.3
2014-Sep-20 13:33N 53°10' E 004°24'1313.3
2014-Sep-20 12:33N 53°22' E 004°33'1713.6
2014-Sep-20 11:20N 53°32' E 004°55'1215.3
2014-Sep-20 10:33N 53°36' E 005°14'1515.0
2014-Sep-20 09:33N 53°41' E 005°38'1514.6
2014-Sep-20 08:33N 53°45' E 006°02'1613.9
2014-Sep-20 07:23N 53°50' E 006°28'1613.3
2014-Sep-20 06:12N 53°54' E 006°54'2213.1
2014-Sep-20 04:30N 53°60' E 007°30'1313.5
2014-Sep-20 03:34N 54°01' E 007°52'1614.2
2014-Sep-20 02:26N 53°60' E 008°19'1415.7
2014-Sep-20 01:33N 53°55' E 008°41'1514.6
2014-Sep-20 00:33N 53°53' E 009°05'24 6.1
2014-Sep-19 20:32N 54°12' E 009°32'45 7.4
2014-Sep-19 14:27N 54°34' E 010°39'1314.2
2014-Sep-19 13:33N 54°36' E 011°00'1414.3
2014-Sep-19 12:33N 54°32' E 011°24'1414.0
2014-Sep-19 11:33N 54°26' E 011°46'1414.3
2014-Sep-19 10:33N 54°28' E 012°10'1513.7
2014-Sep-19 09:29N 54°40' E 012°24'1314.2
2014-Sep-19 08:33N 54°48' E 012°43'1414.1
2014-Sep-19 07:34N 54°52' E 013°06'1414.2
2014-Sep-19 06:34N 54°57' E 013°29'1413.9
2014-Sep-19 05:33N 55°02' E 013°52'1313.4
2014-Sep-19 04:33N 55°09' E 014°12'1414.1
2014-Sep-19 03:33N 55°20' E 014°27'1414.0
2014-Sep-19 02:33N 55°30' E 014°45'1413.8
2014-Sep-19 01:34N 55°37' E 015°06'1413.9
2014-Sep-19 00:33N 55°44' E 015°27'1414.1
2014-Sep-18 23:33N 55°51' E 015°49'1414.1
2014-Sep-18 22:33N 55°58' E 016°11'1514.1
2014-Sep-18 21:27N 56°06' E 016°35'1212.9
2014-Sep-18 20:33N 56°15' E 016°47'1414.0
2014-Sep-18 19:33N 56°29' E 016°53'1413.9
2014-Sep-18 18:33N 56°42' E 016°60'1413.9
2014-Sep-18 17:34N 56°55' E 017°07'1513.8
2014-Sep-18 16:30N 57°09' E 017°14'1313.9
2014-Sep-18 15:33N 57°22' E 017°20'1413.8
2014-Sep-18 14:33N 57°36' E 017°22'1514.0
2014-Sep-18 13:30N 57°50' E 017°23'4811.6
2014-Sep-18 09:22N 58°38' E 017°08'1114.0
2014-Sep-18 08:33N 58°37' E 016°46'1313.2
2014-Sep-18 07:34N 58°38' E 016°21'3 3.3
2014-Sep-18 06:32N 58°37' E 016°15'0 0.0
2014-Sep-18 05:32N 58°37' E 016°15'0 0.0
2014-Sep-18 04:32N 58°37' E 016°15'0 0.0
2014-Sep-18 03:32N 58°37' E 016°15'0 0.0
2014-Sep-18 02:32N 58°37' E 016°15'0 0.0
2014-Sep-18 01:32N 58°37' E 016°15'0 0.0
2014-Sep-18 00:32N 58°37' E 016°15'0 0.0
2014-Sep-17 23:32N 58°37' E 016°15'0 0.0
2014-Sep-17 22:32N 58°37' E 016°15'0 0.0
2014-Sep-17 21:32N 58°37' E 016°15'0 0.0
2014-Sep-17 20:32N 58°37' E 016°15'0 0.0
2014-Sep-17 19:32N 58°37' E 016°15'0 0.0
2014-Sep-17 18:32N 58°37' E 016°15'0 0.0
2014-Sep-17 17:32N 58°37' E 016°15'0 0.1
2014-Sep-17 16:32N 58°37' E 016°15'0 0.0
2014-Sep-17 15:32N 58°37' E 016°15'3 2.9
2014-Sep-17 14:33N 58°38' E 016°20'1212.5
2014-Sep-17 13:33N 58°37' E 016°44'1313.2
2014-Sep-17 12:33N 58°38' E 017°09'7111.8
2014-Sep-17 06:33N 57°27' E 017°21'1313.2
2014-Sep-17 05:33N 57°14' E 017°17'1313.4
2014-Sep-17 04:33N 57°01' E 017°11'1413.3
2014-Sep-17 03:30N 56°48' E 017°06'2713.3
2014-Sep-17 01:29N 56°21' E 016°56'1313.4
2014-Sep-17 00:29N 56°08' E 016°51'6412.8
2014-Sep-16 19:31N 55°34' E 015°16'1212.8
2014-Sep-16 18:33N 55°29' E 014°55'1312.7
2014-Sep-16 17:33N 55°22' E 014°36'1312.7
2014-Sep-16 16:33N 55°12' E 014°23'1313.1
2014-Sep-16 15:33N 55°02' E 014°09'1312.9
2014-Sep-16 14:33N 54°57' E 013°48'1313.0
2014-Sep-16 13:33N 54°53' E 013°26'1312.9
2014-Sep-16 12:32N 54°49' E 013°05'1312.6
2014-Sep-16 11:33N 54°45' E 012°44'1212.5
2014-Sep-16 10:33N 54°37' E 012°28'1211.8
2014-Sep-16 09:33N 54°28' E 012°14'1110.9
2014-Sep-16 08:33N 54°24' E 011°56'1212.0
2014-Sep-16 07:33N 54°28' E 011°37'1212.2
2014-Sep-16 06:33N 54°33' E 011°18'1111.2
2014-Sep-16 05:33N 54°35' E 010°59'55 7.8
2014-Sep-15 22:31N 54°12' E 009°33'8 8.0
2014-Sep-15 21:33N 54°09' E 009°21'8 8.3
2014-Sep-15 20:33N 54°01' E 009°18'5 4.5
2014-Sep-15 19:33N 53°57' E 009°14'3 3.3
2014-Sep-15 18:33N 53°54' E 009°10'3 3.0
2014-Sep-15 17:33N 53°53' E 009°05'1313.0
2014-Sep-15 16:33N 53°52' E 008°43'1313.2
2014-Sep-15 15:33N 53°59' E 008°24'1313.0
2014-Sep-15 14:33N 53°59' E 008°02'6514.6
2014-Sep-15 10:08N 53°44' E 006°15'814.3
2014-Sep-15 09:33N 53°41' E 006°02'1414.0
2014-Sep-15 08:34N 53°37' E 005°40'1413.6
2014-Sep-15 07:34N 53°32' E 005°18'1313.0
2014-Sep-15 06:34N 53°27' E 004°58'12112.0
2014-Sep-14 20:25N 51°42' E 003°18'1213.4
2014-Sep-14 19:33N 51°32' E 003°26'1111.4
2014-Sep-14 18:33N 51°26' E 003°41'10 9.9
2014-Sep-14 17:33N 51°24' E 003°57'7 7.0
2014-Sep-14 16:33N 51°22' E 004°08'8 8.1
2014-Sep-14 15:33N 51°18' E 004°18'1 1.4
2014-Sep-14 14:33N 51°17' E 004°20'1 0.8
2014-Sep-14 13:24N 51°16' E 004°20'0 0.0
2014-Sep-14 12:24N 51°16' E 004°20'0 0.0
2014-Sep-14 11:18N 51°16' E 004°20'0 0.0
2014-Sep-14 10:30N 51°16' E 004°20'0 0.0
2014-Sep-14 09:28N 51°16' E 004°20'0 0.0
2014-Sep-14 08:28N 51°16' E 004°20'0 0.0
2014-Sep-14 07:24N 51°16' E 004°20'0 0.0
2014-Sep-14 06:24N 51°16' E 004°20'0 0.0
2014-Sep-14 05:30N 51°16' E 004°20'0 0.0
2014-Sep-14 04:24N 51°16' E 004°20'0 0.0
2014-Sep-14 03:22N 51°16' E 004°20'0 0.0
2014-Sep-14 02:30N 51°16' E 004°20'0 0.0
2014-Sep-14 01:28N 51°16' E 004°20'0 0.0
2014-Sep-13 21:30N 51°16' E 004°20'0 0.0
2014-Sep-13 20:30N 51°16' E 004°20'0 0.0
2014-Sep-13 19:30N 51°16' E 004°20'0 0.0
2014-Sep-13 18:28N 51°16' E 004°20'0 0.0
2014-Sep-13 17:22N 51°16' E 004°20'0 0.1
2014-Sep-13 16:28N 51°16' E 004°20'0 0.0
2014-Sep-13 15:28N 51°16' E 004°20'0 0.0
2014-Sep-13 14:30N 51°16' E 004°20'0 0.0
2014-Sep-13 13:18N 51°16' E 004°20'0 0.0
2014-Sep-13 12:30N 51°16' E 004°20'0 0.0
2014-Sep-13 11:30N 51°16' E 004°20'0 0.0
2014-Sep-13 10:28N 51°16' E 004°20'0 0.0
2014-Sep-13 09:30N 51°16' E 004°20'0 0.0
2014-Sep-13 08:31N 51°16' E 004°20'0 0.0
2014-Sep-13 07:31N 51°16' E 004°20'0 0.0
2014-Sep-13 06:31N 51°16' E 004°20'0 0.0
2014-Sep-13 05:25N 51°16' E 004°20'0 0.0
2014-Sep-13 04:31N 51°16' E 004°20'0 0.0
2014-Sep-13 03:31N 51°16' E 004°20'0 0.0
2014-Sep-13 02:28N 51°16' E 004°20'0 0.0
2014-Sep-13 01:28N 51°16' E 004°20'0 0.0
2014-Sep-13 00:31N 51°16' E 004°20'0 0.0
2014-Sep-12 23:31N 51°16' E 004°20'0 0.0
2014-Sep-12 22:31N 51°16' E 004°20'0 0.0
2014-Sep-12 21:28N 51°16' E 004°20'0 0.0
2014-Sep-12 20:25N 51°16' E 004°20'0 0.0
2014-Sep-12 19:31N 51°16' E 004°20'1 0.9
2014-Sep-12 18:34N 51°17' E 004°20'2 1.9
2014-Sep-12 17:33N 51°18' E 004°18'9 8.8
2014-Sep-12 16:33N 51°22' E 004°05'1110.9
2014-Sep-12 15:34N 51°21' E 003°48'1414.0
2014-Sep-12 14:34N 51°29' E 003°30'1514.8
2014-Sep-12 13:33N 51°42' E 003°17'  
Track history (hours):
 
Tides and Currents Weather Stations Pressure Air Temp Water Temp Dewpoint Dewpoint Depression Visibility Wind Speed Wind Dir Waves Ship Positions

Bitflower

Last reported at 2014-Sep-22 13:22 UTC. Time now 2014-Sep-22 14:18 UTC.
Position N 51°53' E 004°21'.

Length 116 m; draft 6.5 m.

Type: Ship. MMSI: 266009000.

Date/timePositionNaut miles runAvg speedWind from/ knotsBaromVisibWave heightAir tempDewpointWater temp
2014-Sep-22 13:22N 51°53' E 004°21'0 0.0
2014-Sep-22 12:31N 51°53' E 004°21'0 0.0
2014-Sep-22 11:25N 51°53' E 004°21'0 0.0
2014-Sep-22 10:31N 51°53' E 004°21'0 0.0
2014-Sep-22 09:31N 51°53' E 004°21'0 0.0
2014-Sep-22 08:31N 51°53' E 004°21'0 0.0
2014-Sep-22 07:31N 51°53' E 004°21'0 0.0
2014-Sep-22 06:25N 51°53' E 004°21'0 0.0
2014-Sep-22 05:31N 51°53' E 004°21'0 0.0
2014-Sep-22 04:25N 51°53' E 004°21'0 0.0
2014-Sep-22 03:31N 51°53' E 004°21'0 0.0
2014-Sep-22 02:31N 51°53' E 004°21'0 0.1
2014-Sep-22 01:33N 51°53' E 004°21'1211.7
2014-Sep-22 00:33N 51°59' E 004°04'1212.3
2014-Sep-21 23:33N 52°05' E 003°46'4 3.8
2014-Sep-21 22:31N 52°08' E 003°44'0 0.0
2014-Sep-21 21:31N 52°08' E 003°44'0 0.0
2014-Sep-21 17:29N 52°08' E 003°44'0 0.0
2014-Sep-21 04:28N 52°08' E 003°44'0 0.0
2014-Sep-20 21:13N 52°09' E 003°44'0 0.0
2014-Sep-20 20:31N 52°09' E 003°44'0 0.0
2014-Sep-20 19:07N 52°09' E 003°44'1 1.2
2014-Sep-20 18:33N 52°08' E 003°44'1413.5
2014-Sep-20 17:32N 52°22' E 003°49'2114.8
2014-Sep-20 16:06N 52°42' E 003°55'814.1
2014-Sep-20 15:32N 52°50' E 003°58'1312.8
2014-Sep-20 14:30N 53°02' E 004°08'1313.3
2014-Sep-20 13:33N 53°10' E 004°24'1313.3
2014-Sep-20 12:33N 53°22' E 004°33'1713.6
2014-Sep-20 11:20N 53°32' E 004°55'1215.3
2014-Sep-20 10:33N 53°36' E 005°14'1515.0
2014-Sep-20 09:33N 53°41' E 005°38'1514.6
2014-Sep-20 08:33N 53°45' E 006°02'1613.9
2014-Sep-20 07:23N 53°50' E 006°28'1613.3
2014-Sep-20 06:12N 53°54' E 006°54'2213.1
2014-Sep-20 04:30N 53°60' E 007°30'1313.5
2014-Sep-20 03:34N 54°01' E 007°52'1614.2
2014-Sep-20 02:26N 53°60' E 008°19'1415.7
2014-Sep-20 01:33N 53°55' E 008°41'1514.6
2014-Sep-20 00:33N 53°53' E 009°05'24 6.1
2014-Sep-19 20:32N 54°12' E 009°32'45 7.4
2014-Sep-19 14:27N 54°34' E 010°39'1314.2
2014-Sep-19 13:33N 54°36' E 011°00'1414.3
2014-Sep-19 12:33N 54°32' E 011°24'1414.0
2014-Sep-19 11:33N 54°26' E 011°46'1414.3
2014-Sep-19 10:33N 54°28' E 012°10'1513.7
2014-Sep-19 09:29N 54°40' E 012°24'1314.2
2014-Sep-19 08:33N 54°48' E 012°43'1414.1
2014-Sep-19 07:34N 54°52' E 013°06'1414.2
2014-Sep-19 06:34N 54°57' E 013°29'1413.9
2014-Sep-19 05:33N 55°02' E 013°52'1313.4
2014-Sep-19 04:33N 55°09' E 014°12'1414.1
2014-Sep-19 03:33N 55°20' E 014°27'1414.0
2014-Sep-19 02:33N 55°30' E 014°45'1413.8
2014-Sep-19 01:34N 55°37' E 015°06'1413.9
2014-Sep-19 00:33N 55°44' E 015°27'1414.1
2014-Sep-18 23:33N 55°51' E 015°49'1414.1
2014-Sep-18 22:33N 55°58' E 016°11'1514.1
2014-Sep-18 21:27N 56°06' E 016°35'1212.9
2014-Sep-18 20:33N 56°15' E 016°47'1414.0
2014-Sep-18 19:33N 56°29' E 016°53'1413.9
2014-Sep-18 18:33N 56°42' E 016°60'1413.9
2014-Sep-18 17:34N 56°55' E 017°07'1513.8
2014-Sep-18 16:30N 57°09' E 017°14'1313.9
2014-Sep-18 15:33N 57°22' E 017°20'1413.8
2014-Sep-18 14:33N 57°36' E 017°22'1514.0
2014-Sep-18 13:30N 57°50' E 017°23'4811.6
2014-Sep-18 09:22N 58°38' E 017°08'1114.0
2014-Sep-18 08:33N 58°37' E 016°46'1313.2
2014-Sep-18 07:34N 58°38' E 016°21'3 3.3
2014-Sep-18 06:32N 58°37' E 016°15'0 0.0
2014-Sep-18 05:32N 58°37' E 016°15'0 0.0
2014-Sep-18 04:32N 58°37' E 016°15'0 0.0
2014-Sep-18 03:32N 58°37' E 016°15'0 0.0
2014-Sep-18 02:32N 58°37' E 016°15'0 0.0
2014-Sep-18 01:32N 58°37' E 016°15'0 0.0
2014-Sep-18 00:32N 58°37' E 016°15'0 0.0
2014-Sep-17 23:32N 58°37' E 016°15'0 0.0
2014-Sep-17 22:32N 58°37' E 016°15'0 0.0
2014-Sep-17 21:32N 58°37' E 016°15'0 0.0
2014-Sep-17 20:32N 58°37' E 016°15'0 0.0
2014-Sep-17 19:32N 58°37' E 016°15'0 0.0
2014-Sep-17 18:32N 58°37' E 016°15'0 0.0
2014-Sep-17 17:32N 58°37' E 016°15'0 0.1
2014-Sep-17 16:32N 58°37' E 016°15'0 0.0
2014-Sep-17 15:32N 58°37' E 016°15'3 2.9
2014-Sep-17 14:33N 58°38' E 016°20'1212.5
2014-Sep-17 13:33N 58°37' E 016°44'1313.2
2014-Sep-17 12:33N 58°38' E 017°09'7111.8
2014-Sep-17 06:33N 57°27' E 017°21'1313.2
2014-Sep-17 05:33N 57°14' E 017°17'1313.4
2014-Sep-17 04:33N 57°01' E 017°11'1413.3
2014-Sep-17 03:30N 56°48' E 017°06'2713.3
2014-Sep-17 01:29N 56°21' E 016°56'1313.4
2014-Sep-17 00:29N 56°08' E 016°51'6412.8
2014-Sep-16 19:31N 55°34' E 015°16'1212.8
2014-Sep-16 18:33N 55°29' E 014°55'1312.7
2014-Sep-16 17:33N 55°22' E 014°36'1312.7
2014-Sep-16 16:33N 55°12' E 014°23'1313.1
2014-Sep-16 15:33N 55°02' E 014°09'1312.9
2014-Sep-16 14:33N 54°57' E 013°48'1313.0
2014-Sep-16 13:33N 54°53' E 013°26'1312.9
2014-Sep-16 12:32N 54°49' E 013°05'1312.6
2014-Sep-16 11:33N 54°45' E 012°44'1212.5
2014-Sep-16 10:33N 54°37' E 012°28'1211.8
2014-Sep-16 09:33N 54°28' E 012°14'1110.9
2014-Sep-16 08:33N 54°24' E 011°56'1212.0
2014-Sep-16 07:33N 54°28' E 011°37'1212.2
2014-Sep-16 06:33N 54°33' E 011°18'1111.2
2014-Sep-16 05:33N 54°35' E 010°59'55 7.8
2014-Sep-15 22:31N 54°12' E 009°33'8 8.0
2014-Sep-15 21:33N 54°09' E 009°21'8 8.3
2014-Sep-15 20:33N 54°01' E 009°18'5 4.5
2014-Sep-15 19:33N 53°57' E 009°14'3 3.3
2014-Sep-15 18:33N 53°54' E 009°10'3 3.0
2014-Sep-15 17:33N 53°53' E 009°05'1313.0
2014-Sep-15 16:33N 53°52' E 008°43'1313.2
2014-Sep-15 15:33N 53°59' E 008°24'1313.0
2014-Sep-15 14:33N 53°59' E 008°02'6514.6
2014-Sep-15 10:08N 53°44' E 006°15'814.3
2014-Sep-15 09:33N 53°41' E 006°02'1414.0
2014-Sep-15 08:34N 53°37' E 005°40'1413.6
2014-Sep-15 07:34N 53°32' E 005°18'1313.0
2014-Sep-15 06:34N 53°27' E 004°58'12112.0
2014-Sep-14 20:25N 51°42' E 003°18'1213.4
2014-Sep-14 19:33N 51°32' E 003°26'1111.4
2014-Sep-14 18:33N 51°26' E 003°41'10 9.9
2014-Sep-14 17:33N 51°24' E 003°57'7 7.0
2014-Sep-14 16:33N 51°22' E 004°08'8 8.1
2014-Sep-14 15:33N 51°18' E 004°18'1 1.4
2014-Sep-14 14:33N 51°17' E 004°20'1 0.8
2014-Sep-14 13:24N 51°16' E 004°20'0 0.0
2014-Sep-14 12:24N 51°16' E 004°20'0 0.0
2014-Sep-14 11:18N 51°16' E 004°20'0 0.0
2014-Sep-14 10:30N 51°16' E 004°20'0 0.0
2014-Sep-14 09:28N 51°16' E 004°20'0 0.0
2014-Sep-14 08:28N 51°16' E 004°20'0 0.0
2014-Sep-14 07:24N 51°16' E 004°20'0 0.0
2014-Sep-14 06:24N 51°16' E 004°20'0 0.0
2014-Sep-14 05:30N 51°16' E 004°20'0 0.0
2014-Sep-14 04:24N 51°16' E 004°20'0 0.0
2014-Sep-14 03:22N 51°16' E 004°20'0 0.0
2014-Sep-14 02:30N 51°16' E 004°20'0 0.0
2014-Sep-14 01:28N 51°16' E 004°20'0 0.0
2014-Sep-13 21:30N 51°16' E 004°20'0 0.0
2014-Sep-13 20:30N 51°16' E 004°20'0 0.0
2014-Sep-13 19:30N 51°16' E 004°20'0 0.0
2014-Sep-13 18:28N 51°16' E 004°20'0 0.0
2014-Sep-13 17:22N 51°16' E 004°20'0 0.1
2014-Sep-13 16:28N 51°16' E 004°20'0 0.0
2014-Sep-13 15:28N 51°16' E 004°20'0 0.0
2014-Sep-13 14:30N 51°16' E 004°20'0 0.0
2014-Sep-13 13:18N 51°16' E 004°20'0 0.0
2014-Sep-13 12:30N 51°16' E 004°20'0 0.0
2014-Sep-13 11:30N 51°16' E 004°20'0 0.0
2014-Sep-13 10:28N 51°16' E 004°20'0 0.0
2014-Sep-13 09:30N 51°16' E 004°20'0 0.0
2014-Sep-13 08:31N 51°16' E 004°20'0 0.0
2014-Sep-13 07:31N 51°16' E 004°20'0 0.0
2014-Sep-13 06:31N 51°16' E 004°20'0 0.0
2014-Sep-13 05:25N 51°16' E 004°20'0 0.0
2014-Sep-13 04:31N 51°16' E 004°20'0 0.0
2014-Sep-13 03:31N 51°16' E 004°20'0 0.0
2014-Sep-13 02:28N 51°16' E 004°20'0 0.0
2014-Sep-13 01:28N 51°16' E 004°20'0 0.0
2014-Sep-13 00:31N 51°16' E 004°20'0 0.0
2014-Sep-12 23:31N 51°16' E 004°20'0 0.0
2014-Sep-12 22:31N 51°16' E 004°20'0 0.0
2014-Sep-12 21:28N 51°16' E 004°20'0 0.0
2014-Sep-12 20:25N 51°16' E 004°20'0 0.0
2014-Sep-12 19:31N 51°16' E 004°20'1 0.9
2014-Sep-12 18:34N 51°17' E 004°20'2 1.9
2014-Sep-12 17:33N 51°18' E 004°18'9 8.8
2014-Sep-12 16:33N 51°22' E 004°05'1110.9
2014-Sep-12 15:34N 51°21' E 003°48'1414.0
2014-Sep-12 14:34N 51°29' E 003°30'1514.8
2014-Sep-12 13:33N 51°42' E 003°17'  

Dump ship's entire track history